createdAt,value
2019-05-23T00:02:07.574Z,16.47
2019-05-23T00:05:14.092Z,16.41
2019-05-23T00:08:31.658Z,16.33
2019-05-23T00:11:22.061Z,16.35
2019-05-23T00:14:16.999Z,16.37
2019-05-23T00:16:58.951Z,16.33
2019-05-23T00:19:32.867Z,16.37
2019-05-23T00:22:13.149Z,16.42
2019-05-23T00:24:54.769Z,16.40
2019-05-23T00:27:39.348Z,16.47
2019-05-23T00:30:23.492Z,16.52
2019-05-23T00:33:08.500Z,16.59
2019-05-23T00:35:41.539Z,16.63
2019-05-23T00:38:14.799Z,16.64
2019-05-23T00:40:49.769Z,16.65
2019-05-23T00:43:29.764Z,16.65
2019-05-23T00:46:04.048Z,16.65
2019-05-23T00:48:40.587Z,16.63
2019-05-23T00:51:12.727Z,16.66
2019-05-23T00:53:45.585Z,16.67
2019-05-23T00:56:17.731Z,16.74
2019-05-23T00:58:56.902Z,16.74
2019-05-23T01:01:32.153Z,16.74
2019-05-23T01:04:04.570Z,16.71
2019-05-23T01:06:40.701Z,16.78
2019-05-23T01:09:13.994Z,16.82
2019-05-23T01:11:46.659Z,16.84
2019-05-23T01:14:20.074Z,16.85
2019-05-23T01:16:57.535Z,16.89
2019-05-23T01:19:29.286Z,16.89
2019-05-23T01:22:04.204Z,16.86
2019-05-23T01:24:44.320Z,16.89
2019-05-23T01:27:23.985Z,16.91
2019-05-23T01:29:58.183Z,16.92
2019-05-23T01:32:57.240Z,16.92
2019-05-23T01:35:33.108Z,16.88
2019-05-23T01:38:07.140Z,16.91
2019-05-23T01:40:40.943Z,16.86
2019-05-23T01:43:13.499Z,16.66
2019-05-23T01:45:46.670Z,16.56
2019-05-23T01:48:22.165Z,16.46
2019-05-23T01:50:57.635Z,16.45
2019-05-23T01:53:29.940Z,16.35
2019-05-23T01:56:38.003Z,16.19
2019-05-23T01:59:19.753Z,16.19
2019-05-23T02:01:56.821Z,16.12
2019-05-23T02:04:37.684Z,15.99
2019-05-23T02:07:26.216Z,15.90
2019-05-23T02:10:04.771Z,15.76
2019-05-23T02:12:49.147Z,15.70
2019-05-23T02:15:28.273Z,15.67
2019-05-23T02:18:03.331Z,15.52
2019-05-23T02:20:35.575Z,15.48
2019-05-23T02:23:07.685Z,15.39
2019-05-23T02:25:40.031Z,15.37
2019-05-23T02:28:23.704Z,15.34
2019-05-23T02:31:08.133Z,15.39
2019-05-23T02:33:45.360Z,15.36
2019-05-23T02:36:26.662Z,15.43
2019-05-23T02:39:15.545Z,15.44
2019-05-23T02:42:14.715Z,15.41
2019-05-23T02:44:52.861Z,15.41
2019-05-23T02:47:34.592Z,15.36
2019-05-23T02:50:21.574Z,15.42
2019-05-23T02:53:04.693Z,15.35
2019-05-23T02:55:42.474Z,15.39
2019-05-23T02:58:49.870Z,15.44
2019-05-23T03:01:41.848Z,15.47
2019-05-23T03:04:24.392Z,15.54
2019-05-23T03:07:03.713Z,15.61
2019-05-23T03:09:45.803Z,15.61
2019-05-23T03:12:28.881Z,15.67
2019-05-23T03:15:21.841Z,15.70
2019-05-23T03:18:05.793Z,15.80
2019-05-23T03:20:41.796Z,15.86
2019-05-23T03:23:20.643Z,15.87
2019-05-23T03:26:54.657Z,15.90
2019-05-23T03:29:30.873Z,15.99
2019-05-23T03:32:37.879Z,16.10
2019-05-23T03:35:38.909Z,16.09
2019-05-23T03:38:13.187Z,16.21
2019-05-23T03:40:51.095Z,16.29
2019-05-23T03:43:31.873Z,16.41
2019-05-23T03:46:13.883Z,16.55
2019-05-23T03:48:50.881Z,16.66
2019-05-23T03:51:50.046Z,16.79
2019-05-23T03:54:24.178Z,16.94
2019-05-23T03:56:56.017Z,17.12
2019-05-23T03:59:29.249Z,17.29
2019-05-23T04:09:27.840Z,17.92
2019-05-23T04:12:55.047Z,18.07
2019-05-23T04:15:36.817Z,18.24
2019-05-23T04:18:10.419Z,18.36
2019-05-23T04:20:42.241Z,18.31
2019-05-23T04:23:14.203Z,18.23
2019-05-23T04:25:45.858Z,18.14
2019-05-23T04:28:18.434Z,17.95
2019-05-23T04:30:50.462Z,17.89
2019-05-23T04:33:22.661Z,17.86
2019-05-23T04:35:54.455Z,17.82
2019-05-23T04:38:27.544Z,17.72
2019-05-23T04:40:59.684Z,17.81
2019-05-23T04:43:31.783Z,17.75
2019-05-23T04:46:03.973Z,17.80
2019-05-23T04:48:36.034Z,17.78
2019-05-23T04:51:09.431Z,17.86
2019-05-23T04:53:41.917Z,17.77
2019-05-23T04:56:15.281Z,17.79
2019-05-23T05:02:48.427Z,17.77
2019-05-23T05:09:05.774Z,17.85
2019-05-23T05:11:43.098Z,17.96
2019-05-23T05:14:15.628Z,18.03
2019-05-23T05:16:47.530Z,18.06
2019-05-23T05:19:19.845Z,18.18
2019-05-23T05:21:51.566Z,18.29
2019-05-23T05:24:29.446Z,18.39
2019-05-23T05:27:12.882Z,18.45
2019-05-23T05:29:44.627Z,18.65
2019-05-23T05:32:17.125Z,18.92
2019-05-23T05:34:49.606Z,19.24
2019-05-23T05:37:21.404Z,19.48
2019-05-23T05:39:55.229Z,19.65
2019-05-23T05:42:39.512Z,19.72
2019-05-23T05:45:12.192Z,19.70
2019-05-23T05:47:45.297Z,19.66
2019-05-23T05:50:19.615Z,19.53
2019-05-23T05:52:52.186Z,19.41
2019-05-23T05:55:25.546Z,19.40
2019-05-23T05:58:03.919Z,19.41
2019-05-23T06:01:03.777Z,19.25
2019-05-23T06:03:36.468Z,19.46
2019-05-23T06:06:29.744Z,19.77
2019-05-23T06:09:11.702Z,19.83
2019-05-23T06:11:43.299Z,20.04
2019-05-23T06:14:17.509Z,20.02
2019-05-23T06:16:50.692Z,20.22
2019-05-23T06:19:22.720Z,20.50
2019-05-23T06:22:04.527Z,20.65
2019-05-23T06:24:47.218Z,20.75
2019-05-23T06:27:13.678Z,21.00
2019-05-23T06:29:52.756Z,21.09
2019-05-23T06:32:26.486Z,21.04
2019-05-23T06:35:24.957Z,20.94
2019-05-23T06:37:58.014Z,20.81
2019-05-23T06:40:30.284Z,20.76
2019-05-23T06:43:02.045Z,20.58
2019-05-23T06:45:34.586Z,20.65
2019-05-23T06:48:08.140Z,20.82
2019-05-23T06:50:39.860Z,21.09
2019-05-23T06:53:17.391Z,21.39
2019-05-23T06:55:49.564Z,21.68
2019-05-23T06:58:21.849Z,21.72
2019-05-23T07:00:55.297Z,21.91
2019-05-23T07:03:41.895Z,22.06
2019-05-23T07:06:01.290Z,22.17
2019-05-23T07:08:33.998Z,22.45
2019-05-23T07:11:05.846Z,22.56
2019-05-23T07:13:40.955Z,22.49
2019-05-23T07:16:15.652Z,22.69
2019-05-23T07:18:48.318Z,22.92
2019-05-23T07:21:20.220Z,23.06
2019-05-23T07:23:52.361Z,23.23
2019-05-23T07:26:24.183Z,23.12
2019-05-23T07:28:56.370Z,23.11
2019-05-23T07:31:28.067Z,23.15
2019-05-23T07:34:02.311Z,23.14
2019-05-23T07:36:39.447Z,23.22
2019-05-23T07:39:11.980Z,23.12
2019-05-23T07:41:43.970Z,23.19
2019-05-23T07:44:15.823Z,23.08
2019-05-23T07:46:52.583Z,23.13
2019-05-23T07:49:28.380Z,23.12
2019-05-23T07:52:03.391Z,23.17
2019-05-23T07:54:47.346Z,23.20
2019-05-23T07:57:42.437Z,23.08
2019-05-23T08:00:23.872Z,23.02
2019-05-23T08:02:57.010Z,23.03
2019-05-23T08:05:33.816Z,23.22
2019-05-23T08:08:10.299Z,23.36
2019-05-23T08:10:42.318Z,23.42
2019-05-23T08:16:54.012Z,23.33
2019-05-23T08:19:48.904Z,23.24
2019-05-23T08:29:26.695Z,23.23
2019-05-23T08:31:58.185Z,23.28
2019-05-23T08:37:52.931Z,24.08
2019-05-23T08:40:41.928Z,24.90
2019-05-23T08:43:05.860Z,25.19
2019-05-23T08:45:49.531Z,25.61
2019-05-23T08:48:26.652Z,25.70
2019-05-23T08:50:58.504Z,25.75
2019-05-23T08:53:39.379Z,26.16
2019-05-23T08:56:24.846Z,26.36
2019-05-23T08:59:03.927Z,26.67
2019-05-23T09:01:39.414Z,26.67
2019-05-23T09:04:15.316Z,26.28
2019-05-23T09:06:46.889Z,26.07
2019-05-23T09:09:29.444Z,25.72
2019-05-23T09:11:59.809Z,25.72
2019-05-23T09:14:38.311Z,25.70
2019-05-23T09:17:11.161Z,25.92
2019-05-23T09:19:42.859Z,26.15
2019-05-23T09:22:22.031Z,26.09
2019-05-23T09:25:00.742Z,25.83
2019-05-23T09:27:34.737Z,25.94
2019-05-23T09:30:21.361Z,26.49
2019-05-23T09:33:01.603Z,26.88
2019-05-23T09:35:33.813Z,27.15
2019-05-23T09:38:09.895Z,27.65
2019-05-23T09:40:44.997Z,27.92
2019-05-23T09:43:18.536Z,27.75
2019-05-23T09:45:50.210Z,27.90
2019-05-23T09:48:22.744Z,27.83
2019-05-23T09:50:58.308Z,28.19
2019-05-23T09:53:37.946Z,28.59
2019-05-23T09:56:09.693Z,28.94
2019-05-23T09:59:07.187Z,28.86
2019-05-23T10:01:40.728Z,28.95
2019-05-23T10:04:25.355Z,29.27
2019-05-23T10:06:57.213Z,29.72
2019-05-23T10:09:30.007Z,29.92
2019-05-23T10:12:01.783Z,30.11
2019-05-23T10:14:38.222Z,30.28
2019-05-23T10:17:11.279Z,30.18
2019-05-23T10:19:42.984Z,30.16
2019-05-23T10:22:16.964Z,30.10
2019-05-23T10:24:48.592Z,29.80
2019-05-23T10:27:26.267Z,30.01
2019-05-23T10:30:03.222Z,30.01
2019-05-23T10:32:38.673Z,30.33
2019-05-23T10:35:10.910Z,30.39
2019-05-23T10:37:47.587Z,30.50
2019-05-23T10:40:19.558Z,30.70
2019-05-23T10:42:53.843Z,30.40
2019-05-23T10:45:27.256Z,30.05
2019-05-23T10:48:01.459Z,30.29
2019-05-23T10:50:44.125Z,30.50
2019-05-23T10:53:07.496Z,30.28
2019-05-23T10:55:41.570Z,30.48
2019-05-23T10:58:19.037Z,30.59
2019-05-23T11:00:54.323Z,30.73
2019-05-23T11:03:31.497Z,31.14
2019-05-23T11:06:16.063Z,31.11
2019-05-23T11:08:49.402Z,31.24
2019-05-23T11:11:23.362Z,31.09
2019-05-23T11:13:58.116Z,31.13
2019-05-23T11:16:31.378Z,30.98
2019-05-23T11:26:44.207Z,31.56
2019-05-23T11:29:19.069Z,31.67
2019-05-23T11:32:00.624Z,31.76
2019-05-23T11:34:34.367Z,31.83
2019-05-23T11:37:06.310Z,31.73
2019-05-23T11:39:42.339Z,31.65
2019-05-23T11:42:15.195Z,32.00
2019-05-23T11:44:47.110Z,31.97
2019-05-23T11:47:24.520Z,31.93
2019-05-23T11:49:59.510Z,31.87
2019-05-23T11:52:31.974Z,31.66
2019-05-23T11:55:03.820Z,31.41
2019-05-23T11:58:19.845Z,31.44
2019-05-23T12:05:11.762Z,31.42
2019-05-23T12:11:11.735Z,30.65
2019-05-23T12:11:50.847Z,30.94
2019-05-23T12:13:44.080Z,30.89
2019-05-23T12:16:15.824Z,31.04
2019-05-23T12:18:50.362Z,31.53
2019-05-23T12:21:29.786Z,31.63
2019-05-23T12:24:09.511Z,31.73
2019-05-23T12:26:47.122Z,30.66
2019-05-23T12:29:26.351Z,30.23
2019-05-23T12:32:03.281Z,30.16
2019-05-23T12:34:43.650Z,30.47
2019-05-23T12:37:21.159Z,30.60
2019-05-23T12:39:55.387Z,30.34
2019-05-23T12:42:37.948Z,29.99
2019-05-23T12:45:11.944Z,29.94
2019-05-23T12:48:02.537Z,29.94
2019-05-23T12:50:39.895Z,30.27
2019-05-23T12:57:07.425Z,28.99
2019-05-23T13:00:46.059Z,27.84
2019-05-23T13:03:17.172Z,27.32
2019-05-23T13:05:51.389Z,26.38
2019-05-23T13:08:26.276Z,25.56
2019-05-23T13:11:09.553Z,25.18
2019-05-23T13:14:47.005Z,24.88
2019-05-23T13:20:25.486Z,24.40
2019-05-23T13:22:57.765Z,23.89
2019-05-23T13:25:29.963Z,23.57
2019-05-23T13:28:05.300Z,23.42
2019-05-23T13:30:37.163Z,23.37
2019-05-23T13:40:05.902Z,23.93
2019-05-23T13:42:43.255Z,23.94
2019-05-23T13:45:15.757Z,24.06
2019-05-23T13:47:54.436Z,24.37
2019-05-23T13:50:39.360Z,24.27
2019-05-23T13:53:16.667Z,24.23
2019-05-23T13:56:02.496Z,24.31
2019-05-23T13:58:52.430Z,24.09
2019-05-23T14:01:25.167Z,23.95
2019-05-23T14:04:02.243Z,23.90
2019-05-23T14:06:35.754Z,23.85
2019-05-23T14:09:16.810Z,24.02
2019-05-23T14:12:20.201Z,24.15
2019-05-23T14:14:38.815Z,24.18
2019-05-23T14:17:32.191Z,24.57
2019-05-23T14:20:23.870Z,24.98
2019-05-23T14:23:14.319Z,25.32
2019-05-23T14:25:58.949Z,25.60
2019-05-23T14:28:45.775Z,25.80
2019-05-23T14:31:33.969Z,25.88
2019-05-23T14:34:26.258Z,25.72
2019-05-23T14:37:17.485Z,25.82
2019-05-23T14:39:56.035Z,25.54
2019-05-23T14:43:08.071Z,25.26
2019-05-23T14:46:01.630Z,25.02
2019-05-23T14:49:00.745Z,25.20
2019-05-23T14:52:01.287Z,25.12
2019-05-23T14:54:48.255Z,25.02
2019-05-23T14:57:45.930Z,25.17
2019-05-23T15:00:23.623Z,25.11
2019-05-23T15:03:03.669Z,25.14
2019-05-23T15:05:42.288Z,24.96
2019-05-23T15:08:17.144Z,25.05
2019-05-23T15:11:02.341Z,25.13
2019-05-23T15:13:43.048Z,25.04
2019-05-23T15:16:16.009Z,25.20
2019-05-23T15:19:40.404Z,25.09
2019-05-23T15:25:27.434Z,24.63
2019-05-23T15:28:08.681Z,24.46
2019-05-23T15:30:42.727Z,24.52
2019-05-23T15:33:24.854Z,24.44
2019-05-23T15:35:58.122Z,24.28
2019-05-23T15:38:33.863Z,24.18
2019-05-23T15:41:06.305Z,24.12
2019-05-23T15:43:42.102Z,24.06
2019-05-23T15:46:21.254Z,23.91
2019-05-23T15:48:55.424Z,23.93
2019-05-23T15:51:34.055Z,23.62
2019-05-23T15:54:20.618Z,23.50
2019-05-23T15:57:20.171Z,23.42
2019-05-23T16:00:15.135Z,23.47
2019-05-23T16:03:15.782Z,23.51
2019-05-23T16:05:56.163Z,23.36
2019-05-23T16:08:28.283Z,23.32
2019-05-23T16:11:01.755Z,23.15
2019-05-23T16:13:33.539Z,23.10
2019-05-23T16:16:06.628Z,23.10
2019-05-23T16:18:41.812Z,23.19
2019-05-23T16:21:16.782Z,23.27
2019-05-23T16:24:02.317Z,23.21
2019-05-23T16:26:51.792Z,23.00
2019-05-23T16:29:31.755Z,22.90
2019-05-23T16:32:07.684Z,22.86
2019-05-23T16:34:50.779Z,22.64
2019-05-23T16:37:24.371Z,22.71
2019-05-23T16:39:56.048Z,22.71
2019-05-23T16:42:35.015Z,22.71
2019-05-23T16:45:19.142Z,22.58
2019-05-23T16:48:08.162Z,22.57
2019-05-23T16:50:43.018Z,22.65
2019-05-23T16:53:54.342Z,22.60
2019-05-23T16:56:20.017Z,22.61
2019-05-23T16:59:13.359Z,22.45
2019-05-23T17:02:06.368Z,22.29
2019-05-23T17:05:10.449Z,22.03
2019-05-23T17:07:55.341Z,21.93
2019-05-23T17:11:01.941Z,22.00
2019-05-23T17:13:48.239Z,21.91
2019-05-23T17:16:38.476Z,21.79
2019-05-23T17:19:47.937Z,21.83
2019-05-23T17:22:41.319Z,21.67
2019-05-23T17:25:34.589Z,21.68
2019-05-23T17:28:30.597Z,21.75
2019-05-23T17:31:05.177Z,21.74
2019-05-23T17:33:44.760Z,21.41
2019-05-23T17:36:24.869Z,21.35
2019-05-23T17:38:57.564Z,21.30
2019-05-23T17:41:29.539Z,21.19
2019-05-23T17:44:06.981Z,21.26
2019-05-23T17:46:54.319Z,21.13
2019-05-23T17:49:25.980Z,21.17
2019-05-23T17:52:11.064Z,21.14
2019-05-23T17:54:44.242Z,21.08
2019-05-23T17:57:23.187Z,21.02
2019-05-23T18:00:02.048Z,20.93
2019-05-23T18:02:33.896Z,20.86
2019-05-23T18:05:07.153Z,20.84
2019-05-23T18:07:39.942Z,20.87
2019-05-23T18:10:12.827Z,20.82
2019-05-23T18:12:44.743Z,20.86
2019-05-23T18:15:18.217Z,20.89
2019-05-23T18:17:58.686Z,20.78
2019-05-23T18:20:26.871Z,20.71
2019-05-23T18:22:58.810Z,20.67
2019-05-23T18:25:31.205Z,20.63
2019-05-23T18:28:04.747Z,20.55
2019-05-23T18:30:39.948Z,20.57
2019-05-23T18:33:23.504Z,20.42
2019-05-23T18:36:09.927Z,20.39
2019-05-23T18:38:55.794Z,20.43
2019-05-23T18:41:49.579Z,20.40
2019-05-23T18:44:35.148Z,20.48
2019-05-23T18:47:17.972Z,20.40
2019-05-23T18:49:53.061Z,20.34
2019-05-23T18:52:54.268Z,20.37
2019-05-23T18:55:41.441Z,20.40
2019-05-23T18:58:21.540Z,20.41
2019-05-23T19:01:41.183Z,20.43
2019-05-23T19:04:13.716Z,20.39
2019-05-23T19:06:58.439Z,20.34
2019-05-23T19:09:30.638Z,20.27
2019-05-23T19:12:03.266Z,20.27
2019-05-23T19:14:35.101Z,20.20
2019-05-23T19:17:13.938Z,20.16
2019-05-23T19:19:46.885Z,20.20
2019-05-23T19:22:19.913Z,20.09
2019-05-23T19:24:51.678Z,20.09
2019-05-23T19:27:26.687Z,20.09
2019-05-23T19:29:59.291Z,20.12
2019-05-23T19:32:31.465Z,20.07
2019-05-23T19:35:04.843Z,20.06
2019-05-23T19:37:37.542Z,20.02
2019-05-23T19:40:10.732Z,19.96
2019-05-23T19:42:42.524Z,20.01
2019-05-23T19:45:20.609Z,20.01
2019-05-23T19:47:52.574Z,20.00
2019-05-23T19:50:27.356Z,20.03
2019-05-23T19:52:59.077Z,19.91
2019-05-23T19:55:32.055Z,19.95
2019-05-23T19:58:12.238Z,19.88
2019-05-23T20:00:57.616Z,19.90
2019-05-23T20:03:37.791Z,19.87
2019-05-23T20:06:16.672Z,19.88
2019-05-23T20:08:57.442Z,19.82
2019-05-23T20:11:34.633Z,19.83
2019-05-23T20:14:12.293Z,19.74
2019-05-23T20:16:45.127Z,19.63
2019-05-23T20:19:20.431Z,19.65
2019-05-23T20:22:05.869Z,19.63
2019-05-23T20:24:49.763Z,19.66
2019-05-23T20:27:29.890Z,19.56
2019-05-23T20:30:14.983Z,19.51
2019-05-23T20:32:49.256Z,19.50
2019-05-23T20:35:28.224Z,19.48
2019-05-23T20:38:16.831Z,19.40
2019-05-23T20:40:56.894Z,19.43
2019-05-23T20:43:35.441Z,19.41
2019-05-23T20:46:11.833Z,19.34
2019-05-23T20:48:51.742Z,19.43
2019-05-23T20:51:25.238Z,19.22
2019-05-23T20:54:12.489Z,19.22
2019-05-23T20:56:49.877Z,19.24
2019-05-23T20:59:35.250Z,19.18
2019-05-23T21:02:15.283Z,19.15
2019-05-23T21:04:48.124Z,19.08
2019-05-23T21:07:34.830Z,19.07
2019-05-23T21:10:09.961Z,19.06
2019-05-23T21:12:46.064Z,19.07
2019-05-23T21:15:26.695Z,19.00
2019-05-23T21:18:10.597Z,18.98
2019-05-23T21:20:46.302Z,18.96
2019-05-23T21:23:24.908Z,18.92
2019-05-23T21:26:02.537Z,18.84
2019-05-23T21:28:43.487Z,18.80
2019-05-23T21:31:27.824Z,18.70
2019-05-23T21:34:25.671Z,18.65
2019-05-23T21:37:19.320Z,18.62
2019-05-23T21:40:04.388Z,18.56
2019-05-23T21:42:47.100Z,18.53
2019-05-23T21:45:11.756Z,18.56
2019-05-23T21:47:44.646Z,18.57
2019-05-23T21:50:24.993Z,18.57
2019-05-23T21:53:05.812Z,18.58
2019-05-23T21:55:48.828Z,18.48
2019-05-23T21:58:26.244Z,18.40
2019-05-23T22:01:35.346Z,18.35
2019-05-23T22:04:47.815Z,18.30
2019-05-23T22:07:24.710Z,18.20
2019-05-23T22:10:02.524Z,18.18
2019-05-23T22:13:03.747Z,18.17
2019-05-23T22:15:38.551Z,18.14
2019-05-23T22:18:10.805Z,18.09
2019-05-23T22:20:45.012Z,18.07
2019-05-23T22:23:17.203Z,18.01
2019-05-23T22:25:49.351Z,18.03
2019-05-23T22:28:22.916Z,18.13
2019-05-23T22:30:55.294Z,18.11
2019-05-23T22:33:28.905Z,18.14
2019-05-23T22:36:01.524Z,18.19
2019-05-23T22:38:35.895Z,18.14
2019-05-23T22:41:08.095Z,18.08
2019-05-23T22:43:40.308Z,18.07
2019-05-23T22:46:13.123Z,18.09
2019-05-23T22:48:45.044Z,18.12
2019-05-23T22:51:17.073Z,18.12
2019-05-23T22:53:49.279Z,18.10
2019-05-23T22:56:22.299Z,18.14
2019-05-23T22:58:54.050Z,18.06
2019-05-23T23:01:27.470Z,18.12
2019-05-23T23:04:00.012Z,18.08
2019-05-23T23:06:32.354Z,18.05
2019-05-23T23:09:04.756Z,18.00
2019-05-23T23:11:36.612Z,17.97
2019-05-23T23:14:09.491Z,18.05
2019-05-23T23:16:41.865Z,18.03
2019-05-23T23:19:13.903Z,17.99
2019-05-23T23:21:46.157Z,17.92
2019-05-23T23:24:18.167Z,17.86
2019-05-23T23:26:50.363Z,17.90
2019-05-23T23:29:22.283Z,17.90
2019-05-23T23:31:54.234Z,17.74
2019-05-23T23:34:25.968Z,17.72
2019-05-23T23:36:58.504Z,17.71
2019-05-23T23:39:35.956Z,17.69
2019-05-23T23:42:08.042Z,17.64
2019-05-23T23:44:38.414Z,17.53
2019-05-23T23:47:27.214Z,17.47
2019-05-23T23:50:15.926Z,17.51
2019-05-23T23:53:04.720Z,17.55
2019-05-23T23:55:53.555Z,17.48
2019-05-23T23:58:24.072Z,17.45
